Погода Иньяпина неделю

Алагоас, Бразилия

21 - 27 июля
  • 21июля
    Сегодня
    +17°
    +26°
    Практически безоблачно
    ВремяПогодаТемператураВлажностьДавлениеВетер, м/сВероятность осадков
    00:00Ясно и безоблачно+19°C93 %727 мм2.2 м/с5 %
    03:00Практически безоблачно+18°C97 %726 мм1.6 м/с2 %
    06:00Практически безоблачно+18°C99 %726 мм1.7 м/с3 %
    09:00Облачно с прояснениями+22°C78 %728 мм5.4 м/с42 %
    12:00Небольшая облачность и лёгкий дождик+25°C65 %727 мм6.1 м/с62 %
    15:00Практически безоблачно+25°C65 %725 мм5.4 м/с33 %
    18:00Практически безоблачно+23°C75 %726 мм4.1 м/с9 %
    21:00Ясно и безоблачно+22°C86 %728 мм3.6 м/с3 %
  • 22июля
    Понедельник
    +18°
    +27°
    Облачно с прояснениями
    ВремяПогодаТемператураВлажностьДавлениеВетер, м/сВероятность осадков
    00:00Небольшая облачность+19°C94 %727 мм1.9 м/с5 %
    03:00Небольшая облачность+18°C97 %726 мм2.0 м/с5 %
    06:00Практически безоблачно+18°C98 %727 мм1.9 м/с5 %
    09:00Небольшая облачность+22°C77 %729 мм5.2 м/с13 %
    12:00Облачно с прояснениями+26°C57 %727 мм5.9 м/с11 %
    15:00Облачно с прояснениями+27°C54 %726 мм4.7 м/с9 %
    18:00Небольшая облачность+23°C71 %727 мм3.4 м/с7 %
    21:00Ясно и безоблачно+22°C87 %728 мм3.9 м/с3 %
  • 23июля
    Вторник
    +18°
    +26°
    Небольшая облачность
    ВремяПогодаТемператураВлажностьДавлениеВетер, м/сВероятность осадков
    00:00Практически безоблачно+20°C96 %728 мм3.2 м/с5 %
    03:00Небольшая облачность+19°C98 %727 мм2.9 м/с8 %
    06:00Облачно с прояснениями+20°C96 %727 мм3.0 м/с10 %
    09:00Практически безоблачно+22°C74 %729 мм6.2 м/с23 %
    12:00Небольшая облачность+25°C62 %728 мм5.8 м/с13 %
    15:00Небольшая облачность+26°C60 %726 мм5.5 м/с10 %
    18:00Ясно и безоблачно+23°C70 %727 мм4.2 м/с20 %
    21:00Ясно и безоблачно+22°C81 %728 мм4.1 м/с13 %
  • 24июля
    Среда
    +18°
    +27°
    Небольшая облачность
    ВремяПогодаТемператураВлажностьДавлениеВетер, м/сВероятность осадков
    00:00Практически безоблачно+19°C90 %728 мм2.7 м/с19 %
    03:00Облачно с прояснениями+19°C94 %727 мм2.1 м/с31 %
    06:00Небольшая облачность и лёгкий дождик+19°C95 %727 мм2.4 м/с32 %
    09:00Облачно с прояснениями+22°C75 %729 мм6.2 м/с40 %
    12:00Небольшая облачность+26°C65 %728 мм6.2 м/с34 %
    15:00Небольшая облачность+26°C64 %727 мм6.2 м/с32 %
    18:00Ясно и безоблачно+23°C74 %727 мм4.5 м/с32 %
    21:00Ясно и безоблачно+22°C82 %729 мм4.3 м/с17 %
  • 25июля
    Четверг
    +18°
    +28°
    Практически безоблачно
    ВремяПогодаТемператураВлажностьДавлениеВетер, м/сВероятность осадков
    00:00Ясно и безоблачно+20°C89 %728 мм2.6 м/с29 %
    03:00Практически безоблачно+19°C93 %727 мм2.0 м/с29 %
    06:00Практически безоблачно+19°C94 %727 мм2.2 м/с43 %
    09:00Практически безоблачно+22°C77 %729 мм4.5 м/с43 %
    12:00Небольшая облачность+26°C60 %727 мм6.1 м/с39 %
    15:00Практически безоблачно+27°C50 %725 мм5.8 м/с20 %
    18:00Ясно и безоблачно+24°C67 %726 мм2.9 м/с27 %
    21:00Ясно и безоблачно+22°C84 %727 мм3.6 м/с24 %
Мы используем cookies
Соглашаюсь